createdAt,value
2022-11-30T00:00:50.106Z,7.28571
2022-11-30T00:01:41.830Z,7.28571
2022-11-30T00:02:42.001Z,7.28571
2022-11-30T00:03:41.892Z,7.35714
2022-11-30T00:04:41.938Z,7.35714
2022-11-30T00:04:47.785Z,7.35714
2022-11-30T00:05:47.555Z,7.35714
2022-11-30T00:06:07.436Z,7.35714
2022-11-30T00:07:07.461Z,7.35714
2022-11-30T00:08:07.486Z,7.35714
2022-11-30T00:09:07.525Z,7.35714
2022-11-30T00:10:07.554Z,7.35714
2022-11-30T00:11:07.592Z,7.35714
2022-11-30T00:12:07.617Z,7.28571
2022-11-30T00:13:07.648Z,7.35714
2022-11-30T00:14:07.684Z,7.35714
2022-11-30T00:15:07.721Z,7.28571
2022-11-30T00:16:07.763Z,7.28571
2022-11-30T00:17:07.864Z,7.28571
2022-11-30T00:17:55.585Z,7.28571
2022-11-30T00:18:55.640Z,7.28571
2022-11-30T00:19:55.641Z,7.28571
2022-11-30T00:20:55.681Z,7.28571
2022-11-30T00:21:55.723Z,7.28571
2022-11-30T00:22:55.771Z,7.28571
2022-11-30T00:23:55.802Z,7.21429
2022-11-30T00:24:55.845Z,7.21429
2022-11-30T00:25:55.883Z,7.21429
2022-11-30T00:26:55.905Z,7.21429
2022-11-30T00:27:55.935Z,7.21429
2022-11-30T00:28:55.976Z,7.21429
2022-11-30T00:29:56.002Z,7.21429
2022-11-30T00:30:56.051Z,7.21429
2022-11-30T00:31:56.067Z,7.21429
2022-11-30T00:32:56.099Z,7.21429
2022-11-30T00:33:56.124Z,7.21429
2022-11-30T00:34:56.154Z,7.21429
2022-11-30T00:35:56.203Z,7.21429
2022-11-30T00:36:56.236Z,7.21429
2022-11-30T00:37:56.264Z,7.21429
2022-11-30T00:38:56.295Z,7.21429
2022-11-30T00:39:56.337Z,7.21429
2022-11-30T00:40:56.364Z,7.21429
2022-11-30T00:41:56.401Z,7.21429
2022-11-30T00:42:56.429Z,7.21429
2022-11-30T00:43:56.467Z,7.21429
2022-11-30T00:44:56.490Z,7.21429
2022-11-30T00:45:56.625Z,7.21429
2022-11-30T00:46:56.552Z,7.21429
2022-11-30T00:47:56.582Z,7.21429
2022-11-30T00:48:56.604Z,7.21429
2022-11-30T00:49:56.633Z,7.21429
2022-11-30T00:50:56.664Z,7.21429
2022-11-30T00:51:56.700Z,7.21429
2022-11-30T00:52:56.725Z,7.21429
2022-11-30T00:53:56.753Z,7.21429
2022-11-30T00:54:56.787Z,7.21429
2022-11-30T00:55:56.821Z,7.21429
2022-11-30T00:56:56.843Z,7.21429
2022-11-30T00:57:56.876Z,7.21429
2022-11-30T00:58:56.908Z,7.21429
2022-11-30T00:59:56.937Z,7.21429
2022-11-30T01:00:57.040Z,7.21429
2022-11-30T01:01:56.988Z,7.21429
2022-11-30T01:02:57.020Z,7.14286
2022-11-30T01:03:57.046Z,7.21429
2022-11-30T01:04:57.080Z,7.21429
2022-11-30T01:05:57.115Z,7.21429
2022-11-30T01:06:57.142Z,7.14286
2022-11-30T01:07:57.238Z,7.14286
2022-11-30T01:08:57.192Z,7.14286
2022-11-30T01:09:57.221Z,7.14286
2022-11-30T01:10:57.241Z,7.21429
2022-11-30T01:11:57.282Z,7.21429
2022-11-30T01:12:57.317Z,7.21429
2022-11-30T01:13:57.350Z,7.21429
2022-11-30T01:14:57.385Z,7.21429
2022-11-30T01:15:57.469Z,7.21429
2022-11-30T01:16:57.448Z,7.21429
2022-11-30T01:17:57.472Z,7.21429
2022-11-30T01:18:57.513Z,7.21429
2022-11-30T01:19:57.539Z,7.21429
2022-11-30T01:20:57.567Z,7.21429
2022-11-30T01:21:57.600Z,7.21429
2022-11-30T01:22:57.642Z,7.21429
2022-11-30T01:23:57.657Z,7.14286
2022-11-30T01:24:57.689Z,7.14286
2022-11-30T01:25:57.730Z,7.21429
2022-11-30T01:26:57.764Z,7.21429
2022-11-30T01:27:57.806Z,7.21429
2022-11-30T01:28:57.861Z,7.21429
2022-11-30T01:29:57.865Z,7.21429
2022-11-30T01:30:34.480Z,7.21429
2022-11-30T01:31:34.412Z,7.21429
2022-11-30T01:32:34.451Z,7.21429
2022-11-30T01:33:34.485Z,7.21429
2022-11-30T01:34:34.519Z,7.21429
2022-11-30T01:35:34.555Z,7.21429
2022-11-30T01:36:34.590Z,7.21429
2022-11-30T01:37:34.621Z,7.14286
2022-11-30T01:38:34.661Z,7.14286
2022-11-30T01:39:34.698Z,7.14286
2022-11-30T01:40:34.727Z,7.14286
2022-11-30T01:41:34.753Z,7.14286
2022-11-30T01:42:34.776Z,7.14286
2022-11-30T01:43:34.815Z,7.14286
2022-11-30T01:44:34.843Z,7.14286
2022-11-30T01:45:34.881Z,7.14286
2022-11-30T01:46:35.023Z,7.14286
2022-11-30T01:47:34.954Z,7.14286
2022-11-30T01:48:34.998Z,7.14286
2022-11-30T01:49:35.024Z,7.14286
2022-11-30T01:50:35.060Z,7.14286
2022-11-30T01:51:35.084Z,7.14286
2022-11-30T01:52:35.122Z,7.14286
2022-11-30T01:53:35.164Z,7.14286
2022-11-30T01:54:35.203Z,7.14286
2022-11-30T01:55:35.222Z,7.14286
2022-11-30T01:56:35.259Z,7.14286
2022-11-30T01:57:35.282Z,7.21429
2022-11-30T01:58:35.313Z,7.21429
2022-11-30T01:59:35.355Z,7.21429
2022-11-30T02:00:35.386Z,7.21429
2022-11-30T02:01:35.450Z,7.21429
2022-11-30T02:02:35.458Z,7.21429
2022-11-30T02:03:35.468Z,7.21429
2022-11-30T02:04:35.498Z,7.21429
2022-11-30T02:05:35.520Z,7.21429
2022-11-30T02:06:35.555Z,7.21429
2022-11-30T02:07:35.705Z,7.21429
2022-11-30T02:08:35.794Z,7.21429
2022-11-30T02:09:35.649Z,7.21429
2022-11-30T02:10:35.686Z,7.21429
2022-11-30T02:11:35.721Z,7.21429
2022-11-30T02:12:35.754Z,7.21429
2022-11-30T02:13:35.777Z,7.21429
2022-11-30T02:14:35.811Z,7.21429
2022-11-30T02:15:35.918Z,7.21429
2022-11-30T02:16:35.876Z,7.21429
2022-11-30T02:17:35.911Z,7.21429
2022-11-30T02:18:35.943Z,7.21429
2022-11-30T02:19:35.970Z,7.14286
2022-11-30T02:20:36.001Z,7.14286
2022-11-30T02:21:36.044Z,7.14286
2022-11-30T02:22:36.064Z,7.14286
2022-11-30T02:23:41.214Z,7.14286
2022-11-30T02:24:36.132Z,7.14286
2022-11-30T02:25:36.169Z,7.14286
2022-11-30T02:26:36.205Z,7.14286
2022-11-30T02:27:36.244Z,7.14286
2022-11-30T02:28:36.273Z,7.14286
2022-11-30T02:29:36.311Z,7.14286
2022-11-30T02:30:36.334Z,7.14286
2022-11-30T02:31:36.380Z,7.14286
2022-11-30T02:32:36.411Z,7.14286
2022-11-30T02:33:36.435Z,7.14286
2022-11-30T02:34:36.461Z,7.14286
2022-11-30T02:35:36.501Z,7.14286
2022-11-30T02:36:36.530Z,7.14286
2022-11-30T02:37:36.560Z,7.14286
2022-11-30T02:38:36.593Z,7.07143
2022-11-30T02:39:36.634Z,7.14286
2022-11-30T02:40:36.649Z,7.07143
2022-11-30T02:41:38.296Z,7.07143
2022-11-30T02:42:36.713Z,7.07143
2022-11-30T02:43:36.750Z,7.07143
2022-11-30T02:44:36.792Z,7.07143
2022-11-30T02:45:36.823Z,7.07143
2022-11-30T02:46:36.873Z,7.07143
2022-11-30T02:47:36.879Z,7.07143
2022-11-30T02:48:36.906Z,7.07143
2022-11-30T02:49:36.951Z,7
2022-11-30T02:50:36.980Z,7
2022-11-30T02:51:37.004Z,7
2022-11-30T02:52:37.042Z,7
2022-11-30T02:53:37.074Z,7
2022-11-30T02:54:37.095Z,7
2022-11-30T02:55:37.121Z,7
2022-11-30T02:56:37.156Z,7
2022-11-30T02:57:37.183Z,7
2022-11-30T02:58:37.220Z,7
2022-11-30T02:59:37.254Z,7
2022-11-30T03:00:37.292Z,7
2022-11-30T03:01:37.358Z,7
2022-11-30T03:02:37.406Z,7
2022-11-30T03:03:37.382Z,7
2022-11-30T03:04:37.410Z,7
2022-11-30T03:05:37.445Z,7
2022-11-30T03:06:37.483Z,7
2022-11-30T03:07:37.550Z,7
2022-11-30T03:08:37.540Z,6.92857
2022-11-30T03:09:37.569Z,7
2022-11-30T03:10:37.602Z,6.92857
2022-11-30T03:11:37.633Z,7
2022-11-30T03:12:37.654Z,7
2022-11-30T03:13:37.683Z,7
2022-11-30T03:14:37.718Z,7
2022-11-30T03:15:37.794Z,7
2022-11-30T03:16:37.781Z,7
2022-11-30T03:17:37.811Z,7
2022-11-30T03:18:37.845Z,7
2022-11-30T03:19:37.887Z,7
2022-11-30T03:20:37.910Z,7
2022-11-30T03:21:37.945Z,6.92857
2022-11-30T03:22:37.985Z,6.92857
2022-11-30T03:23:38.011Z,6.92857
2022-11-30T03:24:38.038Z,6.92857
2022-11-30T03:25:38.070Z,6.92857
2022-11-30T03:26:38.088Z,6.92857
2022-11-30T03:27:38.126Z,6.92857
2022-11-30T03:28:38.158Z,6.92857
2022-11-30T03:29:38.187Z,6.92857
2022-11-30T03:30:38.221Z,6.85714
2022-11-30T03:31:38.253Z,6.85714
2022-11-30T03:32:38.291Z,6.85714
2022-11-30T03:33:38.309Z,6.85714
2022-11-30T03:34:38.328Z,6.85714
2022-11-30T03:35:38.361Z,6.85714
2022-11-30T03:36:38.398Z,6.85714
2022-11-30T03:37:38.447Z,6.85714
2022-11-30T03:38:38.467Z,6.85714
2022-11-30T03:39:38.499Z,6.85714
2022-11-30T03:40:38.544Z,6.85714
2022-11-30T03:41:38.572Z,6.85714
2022-11-30T03:42:38.608Z,6.85714
2022-11-30T03:43:38.631Z,6.85714
2022-11-30T03:44:38.658Z,6.85714
2022-11-30T03:45:38.698Z,6.85714
2022-11-30T03:46:38.794Z,6.85714
2022-11-30T03:47:38.762Z,6.85714
2022-11-30T03:48:38.778Z,6.85714
2022-11-30T03:49:38.825Z,6.85714
2022-11-30T03:50:38.869Z,6.85714
2022-11-30T03:51:38.882Z,6.85714
2022-11-30T03:52:38.917Z,6.85714
2022-11-30T03:53:38.951Z,6.85714
2022-11-30T03:54:38.973Z,6.85714
2022-11-30T03:55:39.001Z,6.85714
2022-11-30T03:56:39.045Z,6.85714
2022-11-30T03:57:39.080Z,6.85714
2022-11-30T03:58:39.109Z,6.85714
2022-11-30T03:59:39.141Z,6.85714
2022-11-30T04:00:39.182Z,6.85714
2022-11-30T04:01:39.275Z,6.85714
2022-11-30T04:02:44.420Z,6.85714
2022-11-30T04:03:39.277Z,6.85714
2022-11-30T04:04:39.304Z,6.78571
2022-11-30T04:05:39.332Z,6.85714
2022-11-30T04:06:39.350Z,6.85714
2022-11-30T04:07:39.484Z,6.85714
2022-11-30T04:08:39.407Z,6.85714
2022-11-30T04:09:39.448Z,6.85714
2022-11-30T04:10:39.472Z,6.85714
2022-11-30T04:11:39.512Z,6.85714
2022-11-30T04:12:39.546Z,6.85714
2022-11-30T04:13:39.576Z,6.85714
2022-11-30T04:14:39.607Z,6.85714
2022-11-30T04:15:39.676Z,6.85714
2022-11-30T04:16:39.682Z,6.85714
2022-11-30T04:17:39.716Z,6.85714
2022-11-30T04:18:39.746Z,6.85714
2022-11-30T04:19:39.779Z,6.85714
2022-11-30T04:20:40.701Z,6.85714
2022-11-30T04:21:39.844Z,6.85714
2022-11-30T04:22:39.875Z,6.85714
2022-11-30T04:23:39.916Z,6.85714
2022-11-30T04:24:39.939Z,6.85714
2022-11-30T04:25:39.961Z,6.85714
2022-11-30T04:26:40.004Z,6.85714
2022-11-30T04:27:40.038Z,6.85714
2022-11-30T04:28:40.070Z,6.85714
2022-11-30T04:29:40.093Z,6.85714
2022-11-30T04:30:40.128Z,6.85714
2022-11-30T04:31:40.224Z,6.85714
2022-11-30T04:32:40.195Z,6.85714
2022-11-30T04:33:40.235Z,6.85714
2022-11-30T04:34:40.261Z,6.85714
2022-11-30T04:35:40.298Z,6.85714
2022-11-30T04:36:40.335Z,6.85714
2022-11-30T04:37:40.367Z,6.85714
2022-11-30T04:38:40.390Z,6.85714
2022-11-30T04:39:40.425Z,6.78571
2022-11-30T04:40:40.459Z,6.85714
2022-11-30T04:41:40.503Z,6.85714
2022-11-30T04:42:40.525Z,6.85714
2022-11-30T04:43:40.558Z,6.85714
2022-11-30T04:44:40.589Z,6.85714
2022-11-30T04:45:40.624Z,6.85714
2022-11-30T04:46:40.700Z,6.85714
2022-11-30T04:47:40.679Z,6.85714
2022-11-30T04:48:40.712Z,6.78571
2022-11-30T04:49:40.753Z,6.85714
2022-11-30T04:50:40.782Z,6.85714
2022-11-30T04:51:40.800Z,6.85714
2022-11-30T04:52:40.840Z,6.85714
2022-11-30T04:53:40.876Z,6.85714
2022-11-30T04:54:40.912Z,6.85714
2022-11-30T04:55:40.942Z,6.85714
2022-11-30T04:56:40.975Z,6.85714
2022-11-30T04:57:41.003Z,6.85714
2022-11-30T04:58:41.038Z,6.85714
2022-11-30T04:59:41.079Z,6.85714
2022-11-30T05:00:41.091Z,6.85714
2022-11-30T05:01:41.152Z,6.85714
2022-11-30T05:02:41.169Z,6.85714
2022-11-30T05:03:41.184Z,6.85714
2022-11-30T05:04:41.345Z,6.85714
2022-11-30T05:05:41.260Z,6.78571
2022-11-30T05:06:41.285Z,6.85714
2022-11-30T05:07:41.364Z,6.85714
2022-11-30T05:08:41.361Z,6.85714
2022-11-30T05:09:41.389Z,6.85714
2022-11-30T05:10:41.419Z,6.85714
2022-11-30T05:11:41.453Z,6.78571
2022-11-30T05:12:41.492Z,6.78571
2022-11-30T05:13:41.533Z,6.85714
2022-11-30T05:14:41.564Z,6.85714
2022-11-30T05:15:41.599Z,6.85714
2022-11-30T05:16:41.638Z,6.85714
2022-11-30T05:17:41.684Z,6.85714
2022-11-30T05:18:41.718Z,6.85714
2022-11-30T05:19:41.746Z,6.85714
2022-11-30T05:20:41.779Z,6.85714
2022-11-30T05:21:45.563Z,6.85714
2022-11-30T05:22:41.841Z,6.85714
2022-11-30T05:23:41.881Z,6.78571
2022-11-30T05:24:41.910Z,6.85714
2022-11-30T05:25:41.945Z,6.78571
2022-11-30T05:26:41.966Z,6.78571
2022-11-30T05:27:41.997Z,6.78571
2022-11-30T05:28:42.016Z,6.78571
2022-11-30T05:29:42.054Z,6.78571
2022-11-30T05:30:42.085Z,6.78571
2022-11-30T05:31:42.183Z,6.78571
2022-11-30T05:32:42.144Z,6.78571
2022-11-30T05:33:42.183Z,6.78571
2022-11-30T05:34:50.736Z,6.78571
2022-11-30T05:35:42.241Z,6.78571
2022-11-30T05:36:42.268Z,6.78571
2022-11-30T05:37:42.299Z,6.78571
2022-11-30T05:38:42.333Z,6.78571
2022-11-30T05:39:42.364Z,6.78571
2022-11-30T05:40:42.406Z,6.78571
2022-11-30T05:41:42.433Z,6.78571
2022-11-30T05:42:42.467Z,6.78571
2022-11-30T05:43:42.498Z,6.78571
2022-11-30T05:44:42.518Z,6.78571
2022-11-30T05:45:42.550Z,6.78571
2022-11-30T05:46:42.612Z,6.78571
2022-11-30T05:47:42.618Z,6.78571
2022-11-30T05:48:42.658Z,6.78571
2022-11-30T05:49:42.692Z,6.78571
2022-11-30T05:50:42.720Z,6.78571
2022-11-30T05:51:42.750Z,6.78571
2022-11-30T05:52:42.778Z,6.78571
2022-11-30T05:53:42.809Z,6.78571
2022-11-30T05:54:42.840Z,6.78571
2022-11-30T05:55:42.876Z,6.78571
2022-11-30T05:56:42.909Z,6.78571
2022-11-30T05:57:42.944Z,6.78571
2022-11-30T05:58:42.975Z,6.78571
2022-11-30T05:59:43.001Z,6.78571
2022-11-30T06:00:43.027Z,6.78571
2022-11-30T06:01:43.164Z,6.78571
2022-11-30T06:02:43.267Z,6.78571
2022-11-30T06:03:43.128Z,6.78571
2022-11-30T06:04:43.153Z,6.78571
2022-11-30T06:05:43.192Z,6.78571
2022-11-30T06:06:43.227Z,6.78571
2022-11-30T06:07:43.295Z,6.78571
2022-11-30T06:08:43.293Z,6.78571
2022-11-30T06:09:43.331Z,6.78571
2022-11-30T06:10:43.361Z,6.78571
2022-11-30T06:11:43.392Z,6.78571
2022-11-30T06:12:43.419Z,6.78571
2022-11-30T06:13:43.452Z,6.78571
2022-11-30T06:14:43.478Z,6.78571
2022-11-30T06:15:43.509Z,6.71429
2022-11-30T06:16:43.574Z,6.71429
2022-11-30T06:17:43.573Z,6.71429
2022-11-30T06:18:43.609Z,6.71429
2022-11-30T06:19:43.652Z,6.71429
2022-11-30T06:20:43.661Z,6.71429
2022-11-30T06:21:43.693Z,6.71429
2022-11-30T06:22:43.717Z,6.71429
2022-11-30T06:23:43.752Z,6.71429
2022-11-30T06:24:43.900Z,6.71429
2022-11-30T06:25:43.799Z,6.71429
2022-11-30T06:26:43.834Z,6.71429
2022-11-30T06:27:43.866Z,6.78571
2022-11-30T06:28:47.810Z,6.71429
2022-11-30T06:29:43.921Z,6.78571
2022-11-30T06:30:43.957Z,6.78571
2022-11-30T06:31:44.011Z,6.78571
2022-11-30T06:32:44.012Z,6.78571
2022-11-30T06:33:44.052Z,6.78571
2022-11-30T06:34:44.256Z,6.78571
2022-11-30T06:35:44.120Z,6.78571
2022-11-30T06:36:44.144Z,6.78571
2022-11-30T06:37:44.171Z,6.78571
2022-11-30T06:38:44.197Z,6.78571
2022-11-30T06:40:05.416Z,6.78571
2022-11-30T06:40:44.264Z,6.78571
2022-11-30T06:41:44.288Z,6.78571
2022-11-30T06:42:44.325Z,6.78571
2022-11-30T06:43:44.348Z,6.71429
2022-11-30T06:44:44.594Z,6.78571
2022-11-30T06:45:44.460Z,6.78571
2022-11-30T06:46:44.455Z,6.78571
2022-11-30T06:47:44.476Z,6.78571
2022-11-30T06:48:44.507Z,6.78571
2022-11-30T06:49:44.535Z,6.78571
2022-11-30T06:50:49.856Z,6.78571
2022-11-30T06:51:44.596Z,6.78571
2022-11-30T06:52:44.626Z,6.78571
2022-11-30T06:53:44.665Z,6.78571
2022-11-30T06:54:44.982Z,6.78571
2022-11-30T06:55:44.724Z,6.78571
2022-11-30T06:56:44.760Z,6.78571
2022-11-30T06:57:44.777Z,6.78571
2022-11-30T06:58:44.809Z,6.78571
2022-11-30T06:59:44.846Z,6.78571
2022-11-30T07:00:44.964Z,6.78571
2022-11-30T07:01:44.906Z,6.78571
2022-11-30T07:02:44.928Z,6.71429
2022-11-30T07:03:45.017Z,6.71429
2022-11-30T07:04:45.182Z,6.71429
2022-11-30T07:05:45.007Z,6.78571
2022-11-30T07:06:45.041Z,6.78571
2022-11-30T07:07:45.165Z,6.71429
2022-11-30T07:08:45.105Z,6.71429
2022-11-30T07:09:45.150Z,6.71429
2022-11-30T07:10:45.165Z,6.71429
2022-11-30T07:11:45.199Z,6.71429
2022-11-30T07:12:45.237Z,6.71429
2022-11-30T07:13:45.272Z,6.71429
2022-11-30T07:14:45.775Z,6.71429
2022-11-30T07:15:45.335Z,6.71429
2022-11-30T07:16:45.410Z,6.71429
2022-11-30T07:17:45.394Z,6.71429
2022-11-30T07:18:45.452Z,6.71429
2022-11-30T07:19:45.462Z,6.71429
2022-11-30T07:20:45.483Z,6.71429
2022-11-30T07:21:45.522Z,6.71429
2022-11-30T07:22:45.552Z,6.71429
2022-11-30T07:23:48.403Z,6.71429
2022-11-30T07:24:46.012Z,6.71429
2022-11-30T07:25:45.640Z,6.71429
2022-11-30T07:26:45.670Z,6.71429
2022-11-30T07:27:45.703Z,6.71429
2022-11-30T07:28:45.760Z,6.71429
2022-11-30T07:29:45.782Z,6.71429
2022-11-30T07:30:45.813Z,6.71429
2022-11-30T07:31:45.940Z,6.71429
2022-11-30T07:32:45.885Z,6.71429
2022-11-30T07:33:45.915Z,6.71429
2022-11-30T07:34:46.471Z,6.78571
2022-11-30T07:35:45.981Z,6.78571
2022-11-30T07:36:46.011Z,6.78571
2022-11-30T07:37:46.042Z,6.78571
2022-11-30T07:38:46.057Z,6.78571
2022-11-30T07:39:46.090Z,6.78571
2022-11-30T07:40:46.125Z,6.78571
2022-11-30T07:41:46.174Z,6.78571
2022-11-30T07:42:46.185Z,6.78571
2022-11-30T07:43:46.219Z,6.78571
2022-11-30T07:44:46.591Z,6.78571
2022-11-30T07:45:46.286Z,6.78571
2022-11-30T07:46:46.314Z,6.78571
2022-11-30T07:47:46.331Z,6.78571
2022-11-30T07:48:46.356Z,6.78571
2022-11-30T07:49:46.395Z,6.78571
2022-11-30T07:50:46.423Z,6.78571
2022-11-30T07:51:46.460Z,6.78571
2022-11-30T07:52:46.488Z,6.78571
2022-11-30T07:53:46.525Z,6.78571
2022-11-30T07:54:47.058Z,6.78571
2022-11-30T07:55:46.592Z,6.78571
2022-11-30T07:56:46.623Z,6.78571
2022-11-30T07:57:46.656Z,6.78571
2022-11-30T07:58:46.678Z,6.78571
2022-11-30T07:59:46.924Z,6.78571
2022-11-30T08:00:46.893Z,6.78571
2022-11-30T08:01:46.886Z,6.78571
2022-11-30T08:02:46.804Z,6.78571
2022-11-30T08:03:46.843Z,6.85714
2022-11-30T08:04:47.313Z,6.85714
2022-11-30T08:05:46.896Z,6.85714
2022-11-30T08:06:46.905Z,6.85714
2022-11-30T08:07:46.971Z,6.85714
2022-11-30T08:08:46.962Z,6.85714
2022-11-30T08:09:47.003Z,6.85714
2022-11-30T08:10:47.042Z,6.85714
2022-11-30T08:11:47.075Z,6.85714
2022-11-30T08:12:47.105Z,6.85714
2022-11-30T08:13:47.139Z,6.92857
2022-11-30T08:15:18.318Z,6.92857
2022-11-30T08:15:47.204Z,6.92857
2022-11-30T08:16:47.308Z,6.92857
2022-11-30T08:17:47.252Z,6.92857
2022-11-30T08:18:47.290Z,6.85714
2022-11-30T08:19:47.477Z,6.92857
2022-11-30T08:20:49.942Z,6.92857
2022-11-30T08:21:47.390Z,6.92857
2022-11-30T08:22:47.415Z,6.92857
2022-11-30T08:23:47.478Z,6.92857
2022-11-30T08:24:47.871Z,6.92857
2022-11-30T08:25:47.502Z,6.92857
2022-11-30T08:26:47.538Z,6.92857
2022-11-30T08:27:47.571Z,6.92857
2022-11-30T08:28:47.597Z,6.92857
2022-11-30T08:29:47.637Z,6.92857
2022-11-30T08:30:47.722Z,7
2022-11-30T08:31:47.694Z,7
2022-11-30T08:32:47.727Z,7
2022-11-30T08:33:47.760Z,7
2022-11-30T08:34:48.227Z,7
2022-11-30T08:35:47.818Z,7
2022-11-30T08:36:51.744Z,7
2022-11-30T08:37:47.894Z,7
2022-11-30T08:38:47.924Z,7
2022-11-30T08:39:47.950Z,7
2022-11-30T08:40:47.979Z,7.07143
2022-11-30T08:41:48.019Z,7.07143
2022-11-30T08:42:48.051Z,7.07143
2022-11-30T08:43:48.092Z,7.07143
2022-11-30T08:44:48.119Z,7.07143
2022-11-30T08:45:51.432Z,7.07143
2022-11-30T08:46:52.461Z,7.07143
2022-11-30T08:47:48.203Z,7.07143
2022-11-30T08:48:48.224Z,7.07143
2022-11-30T08:49:48.251Z,7.07143
2022-11-30T08:50:48.282Z,7.07143
2022-11-30T08:52:15.818Z,7.07143
2022-11-30T08:52:48.346Z,7.14286
2022-11-30T08:53:48.380Z,7.14286
2022-11-30T08:54:48.834Z,7.14286
2022-11-30T08:55:48.436Z,7.14286
2022-11-30T08:56:48.466Z,7.14286
2022-11-30T08:57:48.498Z,7.14286
2022-11-30T08:58:48.527Z,7.21429
2022-11-30T08:59:48.564Z,7.21429
2022-11-30T09:00:48.587Z,7.21429
2022-11-30T09:01:48.620Z,7.21429
2022-11-30T09:02:48.711Z,7.21429
2022-11-30T09:03:48.693Z,7.21429
2022-11-30T09:04:48.916Z,7.21429
2022-11-30T09:05:48.759Z,7.21429
2022-11-30T09:06:48.795Z,7.28571
2022-11-30T09:07:48.891Z,7.21429
2022-11-30T09:08:48.847Z,7.28571
2022-11-30T09:09:49.011Z,7.28571
2022-11-30T09:10:48.904Z,7.28571
2022-11-30T09:11:48.938Z,7.28571
2022-11-30T09:12:48.966Z,7.28571
2022-11-30T09:13:48.993Z,7.35714
2022-11-30T09:14:55.843Z,7.35714
2022-11-30T09:15:49.088Z,7.35714
2022-11-30T09:16:49.088Z,7.35714
2022-11-30T09:17:49.109Z,7.42857
2022-11-30T09:18:49.140Z,7.42857
2022-11-30T09:19:49.166Z,7.42857
2022-11-30T09:20:49.197Z,7.42857
2022-11-30T09:21:51.817Z,7.42857
2022-11-30T09:22:49.261Z,7.42857
2022-11-30T09:23:49.296Z,7.42857
2022-11-30T09:24:49.834Z,7.42857
2022-11-30T09:25:49.345Z,7.5
2022-11-30T09:26:49.372Z,7.5
2022-11-30T09:27:49.398Z,7.57143
2022-11-30T09:28:49.439Z,7.57143
2022-11-30T09:29:49.467Z,7.57143
2022-11-30T09:30:49.510Z,7.57143
2022-11-30T09:31:49.533Z,7.64286
2022-11-30T09:32:49.561Z,7.64286
2022-11-30T09:33:49.600Z,7.64286
2022-11-30T09:34:50.860Z,7.71429
2022-11-30T09:35:49.661Z,7.71429
2022-11-30T09:36:49.720Z,7.71429
2022-11-30T09:37:49.728Z,7.71429
2022-11-30T09:38:49.761Z,7.71429
2022-11-30T09:39:49.783Z,7.71429
2022-11-30T09:40:49.810Z,7.71429
2022-11-30T09:41:49.841Z,7.71429
2022-11-30T09:42:49.877Z,7.71429
2022-11-30T09:43:49.898Z,7.71429
2022-11-30T09:44:50.216Z,7.71429
2022-11-30T09:45:49.992Z,7.78571
2022-11-30T09:46:49.998Z,7.78571
2022-11-30T09:47:50.028Z,7.78571
2022-11-30T09:48:50.061Z,7.85714
2022-11-30T09:49:50.092Z,7.85714
2022-11-30T09:50:50.131Z,7.85714
2022-11-30T09:51:50.163Z,7.85714
2022-11-30T09:52:50.194Z,7.85714
2022-11-30T09:53:50.218Z,7.92857
2022-11-30T09:54:50.440Z,7.92857
2022-11-30T09:55:50.280Z,7.92857
2022-11-30T09:56:50.312Z,7.92857
2022-11-30T09:57:50.343Z,7.92857
2022-11-30T09:58:50.365Z,7.92857
2022-11-30T09:59:50.396Z,8
2022-11-30T10:00:50.423Z,8
2022-11-30T10:01:55.313Z,8
2022-11-30T10:02:50.685Z,8
2022-11-30T10:03:50.513Z,8
2022-11-30T10:04:50.541Z,8
2022-11-30T10:05:50.579Z,8.07143
2022-11-30T10:06:50.606Z,8.07143
2022-11-30T10:07:50.720Z,8.07143
2022-11-30T10:08:51.144Z,8.07143
2022-11-30T10:10:09.370Z,8.07143
2022-11-30T10:10:50.756Z,8.07143
2022-11-30T10:11:50.787Z,8.07143
2022-11-30T10:12:50.820Z,8.07143
2022-11-30T10:13:50.846Z,8.07143
2022-11-30T10:14:50.875Z,8.07143
2022-11-30T10:15:50.955Z,8.14286
2022-11-30T10:16:50.943Z,8.07143
2022-11-30T10:17:50.973Z,8.07143
2022-11-30T10:18:51.003Z,8.14286
2022-11-30T10:19:51.034Z,8.14286
2022-11-30T10:20:51.066Z,8.14286
2022-11-30T10:21:51.096Z,8.14286
2022-11-30T10:22:51.126Z,8.14286
2022-11-30T10:23:51.144Z,8.14286
2022-11-30T10:24:51.175Z,8.21429
2022-11-30T10:25:51.206Z,8.21429
2022-11-30T10:26:51.234Z,8.21429
2022-11-30T10:27:51.269Z,8.21429
2022-11-30T10:28:51.301Z,8.21429
2022-11-30T10:29:51.340Z,8.21429
2022-11-30T10:30:51.394Z,8.21429
2022-11-30T10:31:51.398Z,8.21429
2022-11-30T10:32:51.425Z,8.21429
2022-11-30T10:33:51.459Z,8.28571
2022-11-30T10:34:51.485Z,8.28571
2022-11-30T10:35:51.512Z,8.28571
2022-11-30T10:36:51.542Z,8.28571
2022-11-30T10:37:51.572Z,8.28571
2022-11-30T10:38:51.608Z,8.28571
2022-11-30T10:39:51.643Z,8.28571
2022-11-30T10:40:51.680Z,8.28571
2022-11-30T10:41:51.710Z,8.28571
2022-11-30T10:42:51.754Z,8.21429
2022-11-30T10:43:51.791Z,8.21429
2022-11-30T10:44:51.821Z,8.21429
2022-11-30T10:45:51.943Z,8.14286
2022-11-30T10:46:51.923Z,8.14286
2022-11-30T10:47:51.918Z,8.21429
2022-11-30T10:48:51.953Z,8.21429
2022-11-30T10:49:51.987Z,8.21429
2022-11-30T10:50:52.019Z,8.21429
2022-11-30T10:51:52.051Z,8.28571
2022-11-30T10:52:52.081Z,8.28571
2022-11-30T10:53:52.112Z,8.28571
2022-11-30T10:54:52.146Z,8.28571
2022-11-30T10:55:52.184Z,8.28571
2022-11-30T10:56:52.213Z,8.35714
2022-11-30T10:57:52.242Z,8.35714
2022-11-30T10:58:52.278Z,8.35714
2022-11-30T10:59:52.311Z,8.35714
2022-11-30T11:00:52.344Z,8.42857
2022-11-30T11:01:52.423Z,8.42857
2022-11-30T11:02:52.444Z,8.42857
2022-11-30T11:03:52.462Z,8.42857
2022-11-30T11:04:52.466Z,8.42857
2022-11-30T11:05:52.497Z,8.5
2022-11-30T11:06:52.635Z,8.5
2022-11-30T11:07:52.652Z,8.5
2022-11-30T11:08:52.594Z,8.5
2022-11-30T11:09:52.625Z,8.5
2022-11-30T11:10:52.657Z,8.5
2022-11-30T11:11:52.681Z,8.5
2022-11-30T11:12:52.708Z,8.5
2022-11-30T11:13:52.736Z,8.5
2022-11-30T11:14:52.766Z,8.5
2022-11-30T11:15:52.847Z,8.57143
2022-11-30T11:16:52.831Z,8.57143
2022-11-30T11:17:52.865Z,8.57143
2022-11-30T11:18:52.903Z,8.57143
2022-11-30T11:19:52.933Z,8.57143
2022-11-30T11:20:55.755Z,8.57143
2022-11-30T11:21:52.998Z,8.5
2022-11-30T11:22:53.070Z,8.5
2022-11-30T11:23:53.061Z,8.5
2022-11-30T11:24:53.094Z,8.5
2022-11-30T11:25:53.130Z,8.5
2022-11-30T11:26:53.159Z,8.42857
2022-11-30T11:27:53.188Z,8.42857
2022-11-30T11:28:53.221Z,8.5
2022-11-30T11:29:53.254Z,8.5
2022-11-30T11:30:53.343Z,8.5
2022-11-30T11:31:53.328Z,8.5
2022-11-30T11:32:53.360Z,8.5
2022-11-30T11:33:53.393Z,8.5
2022-11-30T11:34:53.427Z,8.5
2022-11-30T11:35:53.457Z,8.5
2022-11-30T11:36:53.481Z,8.5
2022-11-30T11:37:53.520Z,8.5
2022-11-30T11:38:53.547Z,8.5
2022-11-30T11:39:53.582Z,8.5
2022-11-30T11:40:53.613Z,8.5
2022-11-30T11:41:53.647Z,8.5
2022-11-30T11:42:53.676Z,8.57143
2022-11-30T11:43:53.714Z,8.5
2022-11-30T11:44:53.755Z,8.57143
2022-11-30T11:45:53.783Z,8.5
2022-11-30T11:46:53.858Z,8.5
2022-11-30T11:47:53.839Z,8.5
2022-11-30T11:48:53.872Z,8.5
2022-11-30T11:49:53.909Z,8.5
2022-11-30T11:51:07.893Z,8.5
2022-11-30T11:51:53.972Z,8.5
2022-11-30T11:52:54.013Z,8.5
2022-11-30T11:53:54.311Z,8.5
2022-11-30T11:54:54.071Z,8.42857
2022-11-30T11:55:54.107Z,8.5
2022-11-30T11:56:54.136Z,8.42857
2022-11-30T11:57:54.167Z,8.5
2022-11-30T11:58:54.200Z,8.42857
2022-11-30T11:59:54.236Z,8.42857
2022-11-30T12:01:10.596Z,8.42857
2022-11-30T12:01:54.302Z,8.5
2022-11-30T12:02:54.379Z,8.5
2022-11-30T12:03:54.403Z,8.5
2022-11-30T12:04:54.380Z,8.5
2022-11-30T12:05:54.417Z,8.5
2022-11-30T12:06:54.451Z,8.42857
2022-11-30T12:07:54.495Z,8.42857
2022-11-30T12:08:54.498Z,8.42857
2022-11-30T12:09:54.531Z,8.42857
2022-11-30T12:10:54.681Z,8.5
2022-11-30T12:11:54.600Z,8.5
2022-11-30T12:12:55.131Z,8.5
2022-11-30T12:13:54.659Z,8.5
2022-11-30T12:14:54.688Z,8.5
2022-11-30T12:15:54.804Z,8.5
2022-11-30T12:16:54.747Z,8.5
2022-11-30T12:17:54.775Z,8.5
2022-11-30T12:18:54.814Z,8.5
2022-11-30T12:19:54.839Z,8.5